sensor_id;sensor_type;location;lat;lon;timestamp;P1;durP1;ratioP1;P2;durP2;ratioP2
4011;SDS011;2020;48.682;9.024;2022-12-10T00:01:52;42.20;;;23.20;;
4011;SDS011;2020;48.682;9.024;2022-12-10T00:04:17;37.33;;;22.17;;
4011;SDS011;2020;48.682;9.024;2022-12-10T00:06:44;36.47;;;21.87;;
4011;SDS011;2020;48.682;9.024;2022-12-10T00:09:16;34.90;;;22.77;;
4011;SDS011;2020;48.682;9.024;2022-12-10T00:11:42;41.40;;;23.60;;
4011;SDS011;2020;48.682;9.024;2022-12-10T00:14:08;34.53;;;23.00;;
4011;SDS011;2020;48.682;9.024;2022-12-10T00:16:35;40.10;;;24.50;;
4011;SDS011;2020;48.682;9.024;2022-12-10T00:19:02;38.90;;;22.50;;
4011;SDS011;2020;48.682;9.024;2022-12-10T00:21:29;40.80;;;22.17;;
4011;SDS011;2020;48.682;9.024;2022-12-10T00:23:56;38.13;;;23.23;;
4011;SDS011;2020;48.682;9.024;2022-12-10T00:26:24;39.50;;;23.93;;
4011;SDS011;2020;48.682;9.024;2022-12-10T00:28:54;39.47;;;22.07;;
4011;SDS011;2020;48.682;9.024;2022-12-10T00:31:25;36.93;;;23.30;;
4011;SDS011;2020;48.682;9.024;2022-12-10T00:33:53;31.43;;;22.17;;
4011;SDS011;2020;48.682;9.024;2022-12-10T00:36:21;38.20;;;22.70;;
4011;SDS011;2020;48.682;9.024;2022-12-10T00:38:48;39.87;;;25.17;;
4011;SDS011;2020;48.682;9.024;2022-12-10T00:41:14;33.80;;;22.43;;
4011;SDS011;2020;48.682;9.024;2022-12-10T00:43:41;41.17;;;23.73;;
4011;SDS011;2020;48.682;9.024;2022-12-10T00:46:06;34.20;;;23.17;;
4011;SDS011;2020;48.682;9.024;2022-12-10T00:48:32;43.47;;;25.07;;
4011;SDS011;2020;48.682;9.024;2022-12-10T00:51:01;36.73;;;21.27;;
4011;SDS011;2020;48.682;9.024;2022-12-10T00:53:27;44.87;;;24.57;;
4011;SDS011;2020;48.682;9.024;2022-12-10T00:55:53;40.73;;;24.13;;
4011;SDS011;2020;48.682;9.024;2022-12-10T00:58:19;41.10;;;24.33;;
4011;SDS011;2020;48.682;9.024;2022-12-10T01:00:45;31.17;;;21.60;;
4011;SDS011;2020;48.682;9.024;2022-12-10T01:03:11;38.73;;;23.03;;
4011;SDS011;2020;48.682;9.024;2022-12-10T01:05:36;43.40;;;24.60;;
4011;SDS011;2020;48.682;9.024;2022-12-10T01:08:01;36.80;;;22.60;;
4011;SDS011;2020;48.682;9.024;2022-12-10T01:10:26;38.70;;;23.00;;
4011;SDS011;2020;48.682;9.024;2022-12-10T01:12:52;40.30;;;23.47;;
4011;SDS011;2020;48.682;9.024;2022-12-10T01:15:17;38.53;;;23.33;;
4011;SDS011;2020;48.682;9.024;2022-12-10T01:17:42;36.03;;;22.53;;
4011;SDS011;2020;48.682;9.024;2022-12-10T01:20:08;37.73;;;23.23;;
4011;SDS011;2020;48.682;9.024;2022-12-10T01:22:33;40.30;;;22.30;;
4011;SDS011;2020;48.682;9.024;2022-12-10T01:24:59;37.77;;;23.07;;
4011;SDS011;2020;48.682;9.024;2022-12-10T01:27:24;40.20;;;23.10;;
4011;SDS011;2020;48.682;9.024;2022-12-10T01:29:49;39.83;;;23.90;;
4011;SDS011;2020;48.682;9.024;2022-12-10T01:32:14;46.53;;;25.60;;
4011;SDS011;2020;48.682;9.024;2022-12-10T01:34:40;40.60;;;23.97;;
4011;SDS011;2020;48.682;9.024;2022-12-10T01:37:05;35.80;;;22.83;;
4011;SDS011;2020;48.682;9.024;2022-12-10T01:39:30;40.97;;;24.80;;
4011;SDS011;2020;48.682;9.024;2022-12-10T01:41:57;39.67;;;25.10;;
4011;SDS011;2020;48.682;9.024;2022-12-10T01:46:50;40.37;;;23.13;;
4011;SDS011;2020;48.682;9.024;2022-12-10T01:49:24;35.23;;;20.60;;
4011;SDS011;2020;48.682;9.024;2022-12-10T01:52:10;42.73;;;24.43;;
4011;SDS011;2020;48.682;9.024;2022-12-10T01:54:42;37.53;;;23.50;;
4011;SDS011;2020;48.682;9.024;2022-12-10T01:59:55;33.70;;;20.97;;
4011;SDS011;2020;48.682;9.024;2022-12-10T02:05:09;37.47;;;23.80;;
4011;SDS011;2020;48.682;9.024;2022-12-10T02:10:41;39.97;;;24.10;;
4011;SDS011;2020;48.682;9.024;2022-12-10T02:13:12;35.33;;;22.17;;
4011;SDS011;2020;48.682;9.024;2022-12-10T02:15:46;34.83;;;22.07;;
4011;SDS011;2020;48.682;9.024;2022-12-10T02:20:54;32.30;;;21.27;;
4011;SDS011;2020;48.682;9.024;2022-12-10T02:23:26;35.03;;;21.03;;
4011;SDS011;2020;48.682;9.024;2022-12-10T02:25:59;31.63;;;21.60;;
4011;SDS011;2020;48.682;9.024;2022-12-10T02:28:47;27.80;;;21.20;;
4011;SDS011;2020;48.682;9.024;2022-12-10T02:31:15;33.50;;;20.73;;
4011;SDS011;2020;48.682;9.024;2022-12-10T02:33:47;33.83;;;20.43;;
4011;SDS011;2020;48.682;9.024;2022-12-10T02:36:16;38.70;;;23.63;;
4011;SDS011;2020;48.682;9.024;2022-12-10T02:38:45;34.63;;;22.23;;
4011;SDS011;2020;48.682;9.024;2022-12-10T02:41:14;36.00;;;22.03;;
4011;SDS011;2020;48.682;9.024;2022-12-10T02:43:48;34.37;;;22.70;;
4011;SDS011;2020;48.682;9.024;2022-12-10T02:46:17;32.97;;;22.37;;
4011;SDS011;2020;48.682;9.024;2022-12-10T02:48:43;32.60;;;21.80;;
4011;SDS011;2020;48.682;9.024;2022-12-10T02:51:11;38.63;;;23.60;;
4011;SDS011;2020;48.682;9.024;2022-12-10T02:53:41;40.13;;;23.83;;
4011;SDS011;2020;48.682;9.024;2022-12-10T03:01:15;36.43;;;22.77;;
4011;SDS011;2020;48.682;9.024;2022-12-10T03:03:56;34.10;;;22.37;;
4011;SDS011;2020;48.682;9.024;2022-12-10T03:06:39;37.77;;;22.43;;
4011;SDS011;2020;48.682;9.024;2022-12-10T03:09:16;35.17;;;22.53;;
4011;SDS011;2020;48.682;9.024;2022-12-10T03:11:46;29.80;;;19.53;;
4011;SDS011;2020;48.682;9.024;2022-12-10T03:14:22;30.97;;;20.60;;
4011;SDS011;2020;48.682;9.024;2022-12-10T03:16:57;35.20;;;22.97;;
4011;SDS011;2020;48.682;9.024;2022-12-10T03:19:27;38.73;;;22.83;;
4011;SDS011;2020;48.682;9.024;2022-12-10T03:21:59;33.97;;;22.77;;
4011;SDS011;2020;48.682;9.024;2022-12-10T03:24:27;36.00;;;24.00;;
4011;SDS011;2020;48.682;9.024;2022-12-10T03:26:54;39.53;;;21.37;;
4011;SDS011;2020;48.682;9.024;2022-12-10T03:29:24;37.87;;;22.10;;
4011;SDS011;2020;48.682;9.024;2022-12-10T03:32:02;33.40;;;21.77;;
4011;SDS011;2020;48.682;9.024;2022-12-10T03:34:28;29.93;;;19.87;;
4011;SDS011;2020;48.682;9.024;2022-12-10T03:36:54;33.87;;;20.17;;
4011;SDS011;2020;48.682;9.024;2022-12-10T03:39:20;37.20;;;23.50;;
4011;SDS011;2020;48.682;9.024;2022-12-10T03:41:45;32.90;;;20.07;;
4011;SDS011;2020;48.682;9.024;2022-12-10T03:44:11;35.60;;;23.00;;
4011;SDS011;2020;48.682;9.024;2022-12-10T03:46:36;32.83;;;21.30;;
4011;SDS011;2020;48.682;9.024;2022-12-10T03:49:02;32.33;;;21.30;;
4011;SDS011;2020;48.682;9.024;2022-12-10T03:51:28;35.23;;;22.67;;
4011;SDS011;2020;48.682;9.024;2022-12-10T03:53:54;28.60;;;20.47;;
4011;SDS011;2020;48.682;9.024;2022-12-10T03:56:19;35.47;;;22.20;;
4011;SDS011;2020;48.682;9.024;2022-12-10T03:58:45;32.37;;;21.30;;
4011;SDS011;2020;48.682;9.024;2022-12-10T04:01:10;39.67;;;22.50;;
4011;SDS011;2020;48.682;9.024;2022-12-10T04:03:36;31.90;;;21.07;;
4011;SDS011;2020;48.682;9.024;2022-12-10T04:06:04;30.67;;;20.13;;
4011;SDS011;2020;48.682;9.024;2022-12-10T04:08:31;29.67;;;18.90;;
4011;SDS011;2020;48.682;9.024;2022-12-10T04:11:03;36.23;;;21.83;;
4011;SDS011;2020;48.682;9.024;2022-12-10T04:13:33;34.10;;;20.73;;
4011;SDS011;2020;48.682;9.024;2022-12-10T04:16:17;34.93;;;22.03;;
4011;SDS011;2020;48.682;9.024;2022-12-10T04:18:52;31.70;;;21.60;;
4011;SDS011;2020;48.682;9.024;2022-12-10T04:21:18;32.87;;;21.40;;
4011;SDS011;2020;48.682;9.024;2022-12-10T04:24:02;29.70;;;20.80;;
4011;SDS011;2020;48.682;9.024;2022-12-10T04:26:45;31.43;;;21.00;;
4011;SDS011;2020;48.682;9.024;2022-12-10T04:29:17;35.43;;;22.00;;
4011;SDS011;2020;48.682;9.024;2022-12-10T04:31:53;34.00;;;21.97;;
4011;SDS011;2020;48.682;9.024;2022-12-10T04:34:19;30.67;;;20.53;;
4011;SDS011;2020;48.682;9.024;2022-12-10T04:36:45;34.37;;;22.17;;
4011;SDS011;2020;48.682;9.024;2022-12-10T04:39:10;31.97;;;21.23;;
4011;SDS011;2020;48.682;9.024;2022-12-10T04:41:37;33.17;;;21.70;;
4011;SDS011;2020;48.682;9.024;2022-12-10T04:44:06;34.20;;;20.70;;
4011;SDS011;2020;48.682;9.024;2022-12-10T04:46:32;30.83;;;21.23;;
4011;SDS011;2020;48.682;9.024;2022-12-10T04:48:58;32.50;;;22.37;;
4011;SDS011;2020;48.682;9.024;2022-12-10T04:51:23;28.90;;;19.67;;
4011;SDS011;2020;48.682;9.024;2022-12-10T04:53:48;34.40;;;20.50;;
4011;SDS011;2020;48.682;9.024;2022-12-10T04:56:13;32.10;;;19.67;;
4011;SDS011;2020;48.682;9.024;2022-12-10T04:58:39;35.97;;;22.57;;
4011;SDS011;2020;48.682;9.024;2022-12-10T05:01:05;32.17;;;20.57;;
4011;SDS011;2020;48.682;9.024;2022-12-10T05:03:32;37.37;;;22.20;;
4011;SDS011;2020;48.682;9.024;2022-12-10T05:06:02;31.40;;;20.40;;
4011;SDS011;2020;48.682;9.024;2022-12-10T05:08:28;36.70;;;21.80;;
4011;SDS011;2020;48.682;9.024;2022-12-10T05:10:54;38.93;;;21.93;;
4011;SDS011;2020;48.682;9.024;2022-12-10T05:13:19;27.20;;;20.10;;
4011;SDS011;2020;48.682;9.024;2022-12-10T05:15:44;29.53;;;20.07;;
4011;SDS011;2020;48.682;9.024;2022-12-10T05:18:10;36.43;;;23.03;;
4011;SDS011;2020;48.682;9.024;2022-12-10T05:20:35;39.30;;;22.40;;
4011;SDS011;2020;48.682;9.024;2022-12-10T05:23:00;34.57;;;21.17;;
4011;SDS011;2020;48.682;9.024;2022-12-10T05:25:44;30.87;;;18.97;;
4011;SDS011;2020;48.682;9.024;2022-12-10T05:28:18;30.03;;;21.30;;
4011;SDS011;2020;48.682;9.024;2022-12-10T05:30:44;31.30;;;20.10;;
4011;SDS011;2020;48.682;9.024;2022-12-10T05:33:10;32.87;;;21.47;;
4011;SDS011;2020;48.682;9.024;2022-12-10T05:35:35;35.27;;;20.40;;
4011;SDS011;2020;48.682;9.024;2022-12-10T05:38:00;29.07;;;20.20;;
4011;SDS011;2020;48.682;9.024;2022-12-10T05:40:25;30.90;;;21.57;;
4011;SDS011;2020;48.682;9.024;2022-12-10T05:42:51;32.10;;;21.13;;
4011;SDS011;2020;48.682;9.024;2022-12-10T05:45:16;34.90;;;21.10;;
4011;SDS011;2020;48.682;9.024;2022-12-10T05:47:41;30.80;;;20.90;;
4011;SDS011;2020;48.682;9.024;2022-12-10T05:50:07;29.97;;;19.73;;
4011;SDS011;2020;48.682;9.024;2022-12-10T05:52:32;30.87;;;20.13;;
4011;SDS011;2020;48.682;9.024;2022-12-10T05:54:57;29.10;;;18.80;;
4011;SDS011;2020;48.682;9.024;2022-12-10T05:57:23;29.03;;;18.63;;
4011;SDS011;2020;48.682;9.024;2022-12-10T05:59:48;32.30;;;18.67;;
4011;SDS011;2020;48.682;9.024;2022-12-10T06:02:13;29.40;;;20.40;;
4011;SDS011;2020;48.682;9.024;2022-12-10T06:04:38;29.53;;;18.30;;
4011;SDS011;2020;48.682;9.024;2022-12-10T06:07:04;33.13;;;21.47;;
4011;SDS011;2020;48.682;9.024;2022-12-10T06:09:29;30.60;;;19.77;;
4011;SDS011;2020;48.682;9.024;2022-12-10T06:11:54;27.90;;;19.67;;
4011;SDS011;2020;48.682;9.024;2022-12-10T06:14:19;28.23;;;20.03;;
4011;SDS011;2020;48.682;9.024;2022-12-10T06:16:45;32.53;;;20.17;;
4011;SDS011;2020;48.682;9.024;2022-12-10T06:19:10;28.67;;;18.93;;
4011;SDS011;2020;48.682;9.024;2022-12-10T06:21:35;28.33;;;19.17;;
4011;SDS011;2020;48.682;9.024;2022-12-10T06:24:01;32.10;;;21.30;;
4011;SDS011;2020;48.682;9.024;2022-12-10T06:26:26;29.97;;;20.40;;
4011;SDS011;2020;48.682;9.024;2022-12-10T06:28:52;34.37;;;20.47;;
4011;SDS011;2020;48.682;9.024;2022-12-10T06:31:18;39.03;;;22.20;;
4011;SDS011;2020;48.682;9.024;2022-12-10T06:33:43;32.73;;;20.60;;
4011;SDS011;2020;48.682;9.024;2022-12-10T06:36:09;33.57;;;20.67;;
4011;SDS011;2020;48.682;9.024;2022-12-10T06:38:36;34.73;;;20.87;;
4011;SDS011;2020;48.682;9.024;2022-12-10T06:41:05;34.50;;;21.47;;
4011;SDS011;2020;48.682;9.024;2022-12-10T06:43:32;36.87;;;21.93;;
4011;SDS011;2020;48.682;9.024;2022-12-10T06:45:58;39.07;;;20.30;;
4011;SDS011;2020;48.682;9.024;2022-12-10T06:48:24;32.83;;;19.77;;
4011;SDS011;2020;48.682;9.024;2022-12-10T06:50:49;33.90;;;21.83;;
4011;SDS011;2020;48.682;9.024;2022-12-10T06:53:14;39.67;;;20.20;;
4011;SDS011;2020;48.682;9.024;2022-12-10T06:55:39;33.70;;;21.13;;
4011;SDS011;2020;48.682;9.024;2022-12-10T06:58:05;32.07;;;19.67;;
4011;SDS011;2020;48.682;9.024;2022-12-10T07:00:30;33.90;;;20.87;;
4011;SDS011;2020;48.682;9.024;2022-12-10T07:02:56;41.17;;;23.13;;
4011;SDS011;2020;48.682;9.024;2022-12-10T07:05:21;35.53;;;20.80;;
4011;SDS011;2020;48.682;9.024;2022-12-10T07:07:46;35.47;;;20.80;;
4011;SDS011;2020;48.682;9.024;2022-12-10T07:10:12;33.83;;;21.63;;
4011;SDS011;2020;48.682;9.024;2022-12-10T07:12:37;37.47;;;22.57;;
4011;SDS011;2020;48.682;9.024;2022-12-10T07:15:03;32.90;;;20.77;;
4011;SDS011;2020;48.682;9.024;2022-12-10T07:17:28;38.50;;;20.37;;
4011;SDS011;2020;48.682;9.024;2022-12-10T07:19:53;32.13;;;21.20;;
4011;SDS011;2020;48.682;9.024;2022-12-10T07:22:19;30.67;;;20.57;;
4011;SDS011;2020;48.682;9.024;2022-12-10T07:24:44;37.43;;;22.23;;
4011;SDS011;2020;48.682;9.024;2022-12-10T07:27:09;32.20;;;20.87;;
4011;SDS011;2020;48.682;9.024;2022-12-10T07:29:35;35.10;;;22.50;;
4011;SDS011;2020;48.682;9.024;2022-12-10T07:32:00;37.93;;;20.60;;
4011;SDS011;2020;48.682;9.024;2022-12-10T07:34:26;36.33;;;21.60;;
4011;SDS011;2020;48.682;9.024;2022-12-10T07:36:51;32.73;;;22.00;;
4011;SDS011;2020;48.682;9.024;2022-12-10T07:39:16;33.80;;;19.90;;
4011;SDS011;2020;48.682;9.024;2022-12-10T07:41:51;32.73;;;21.70;;
4011;SDS011;2020;48.682;9.024;2022-12-10T07:44:18;34.60;;;22.43;;
4011;SDS011;2020;48.682;9.024;2022-12-10T07:46:48;33.97;;;21.17;;
4011;SDS011;2020;48.682;9.024;2022-12-10T07:49:14;33.20;;;20.83;;
4011;SDS011;2020;48.682;9.024;2022-12-10T07:51:43;31.97;;;21.47;;
4011;SDS011;2020;48.682;9.024;2022-12-10T07:54:12;31.97;;;20.07;;
4011;SDS011;2020;48.682;9.024;2022-12-10T07:56:38;37.90;;;20.13;;
4011;SDS011;2020;48.682;9.024;2022-12-10T07:59:04;36.17;;;20.80;;
4011;SDS011;2020;48.682;9.024;2022-12-10T08:01:29;34.13;;;20.47;;
4011;SDS011;2020;48.682;9.024;2022-12-10T08:03:55;36.30;;;22.10;;
4011;SDS011;2020;48.682;9.024;2022-12-10T08:06:24;33.60;;;20.83;;
4011;SDS011;2020;48.682;9.024;2022-12-10T08:08:51;31.13;;;21.70;;
4011;SDS011;2020;48.682;9.024;2022-12-10T08:11:17;34.10;;;21.80;;
4011;SDS011;2020;48.682;9.024;2022-12-10T08:13:43;34.67;;;20.50;;
4011;SDS011;2020;48.682;9.024;2022-12-10T08:16:16;33.07;;;22.63;;
4011;SDS011;2020;48.682;9.024;2022-12-10T08:18:43;28.17;;;20.00;;
4011;SDS011;2020;48.682;9.024;2022-12-10T08:21:11;40.23;;;20.10;;
4011;SDS011;2020;48.682;9.024;2022-12-10T08:23:38;30.97;;;20.87;;
4011;SDS011;2020;48.682;9.024;2022-12-10T08:26:05;36.03;;;21.60;;
4011;SDS011;2020;48.682;9.024;2022-12-10T08:28:32;35.40;;;21.20;;
4011;SDS011;2020;48.682;9.024;2022-12-10T08:30:58;36.40;;;21.30;;
4011;SDS011;2020;48.682;9.024;2022-12-10T08:33:23;31.83;;;21.47;;
4011;SDS011;2020;48.682;9.024;2022-12-10T08:35:49;31.70;;;21.47;;
4011;SDS011;2020;48.682;9.024;2022-12-10T08:38:14;37.77;;;21.47;;
4011;SDS011;2020;48.682;9.024;2022-12-10T08:40:40;36.17;;;21.60;;
4011;SDS011;2020;48.682;9.024;2022-12-10T08:43:06;41.50;;;22.93;;
4011;SDS011;2020;48.682;9.024;2022-12-10T08:45:32;28.73;;;18.73;;
4011;SDS011;2020;48.682;9.024;2022-12-10T08:47:57;29.13;;;18.50;;
4011;SDS011;2020;48.682;9.024;2022-12-10T08:50:23;29.90;;;19.30;;
4011;SDS011;2020;48.682;9.024;2022-12-10T08:52:48;33.93;;;20.20;;
4011;SDS011;2020;48.682;9.024;2022-12-10T08:55:13;30.63;;;20.03;;
4011;SDS011;2020;48.682;9.024;2022-12-10T08:57:39;27.70;;;18.93;;
4011;SDS011;2020;48.682;9.024;2022-12-10T09:00:04;28.97;;;19.67;;
4011;SDS011;2020;48.682;9.024;2022-12-10T09:02:30;37.00;;;22.47;;
4011;SDS011;2020;48.682;9.024;2022-12-10T09:04:55;38.97;;;19.57;;
4011;SDS011;2020;48.682;9.024;2022-12-10T09:07:20;35.10;;;21.60;;
4011;SDS011;2020;48.682;9.024;2022-12-10T09:09:46;36.07;;;21.60;;
4011;SDS011;2020;48.682;9.024;2022-12-10T09:12:12;35.03;;;20.83;;
4011;SDS011;2020;48.682;9.024;2022-12-10T09:14:37;34.37;;;20.57;;
4011;SDS011;2020;48.682;9.024;2022-12-10T09:17:03;31.87;;;20.77;;
4011;SDS011;2020;48.682;9.024;2022-12-10T09:19:29;31.90;;;21.23;;
4011;SDS011;2020;48.682;9.024;2022-12-10T09:21:55;25.77;;;19.00;;
4011;SDS011;2020;48.682;9.024;2022-12-10T09:24:20;31.50;;;19.80;;
4011;SDS011;2020;48.682;9.024;2022-12-10T09:26:45;33.90;;;20.63;;
4011;SDS011;2020;48.682;9.024;2022-12-10T09:29:12;33.57;;;19.47;;
4011;SDS011;2020;48.682;9.024;2022-12-10T09:31:38;28.97;;;18.67;;
4011;SDS011;2020;48.682;9.024;2022-12-10T09:34:03;34.70;;;20.73;;
4011;SDS011;2020;48.682;9.024;2022-12-10T09:36:28;34.00;;;19.47;;
4011;SDS011;2020;48.682;9.024;2022-12-10T09:38:53;34.13;;;20.93;;
4011;SDS011;2020;48.682;9.024;2022-12-10T09:41:25;29.30;;;20.00;;
4011;SDS011;2020;48.682;9.024;2022-12-10T09:44:20;33.40;;;20.77;;
4011;SDS011;2020;48.682;9.024;2022-12-10T09:46:57;40.70;;;22.83;;
4011;SDS011;2020;48.682;9.024;2022-12-10T09:52:14;39.93;;;23.63;;
4011;SDS011;2020;48.682;9.024;2022-12-10T09:54:44;37.30;;;21.80;;
4011;SDS011;2020;48.682;9.024;2022-12-10T09:57:32;37.53;;;21.40;;
4011;SDS011;2020;48.682;9.024;2022-12-10T10:02:44;31.10;;;19.20;;
4011;SDS011;2020;48.682;9.024;2022-12-10T10:05:13;39.70;;;23.27;;
4011;SDS011;2020;48.682;9.024;2022-12-10T10:07:47;33.60;;;20.90;;
4011;SDS011;2020;48.682;9.024;2022-12-10T10:10:21;34.23;;;19.90;;
4011;SDS011;2020;48.682;9.024;2022-12-10T10:12:51;36.50;;;21.47;;
4011;SDS011;2020;48.682;9.024;2022-12-10T10:15:20;32.40;;;19.30;;
4011;SDS011;2020;48.682;9.024;2022-12-10T10:17:54;32.80;;;21.00;;
4011;SDS011;2020;48.682;9.024;2022-12-10T10:20:22;36.37;;;20.90;;
4011;SDS011;2020;48.682;9.024;2022-12-10T10:22:48;39.27;;;22.33;;
4011;SDS011;2020;48.682;9.024;2022-12-10T10:25:17;42.07;;;21.20;;
4011;SDS011;2020;48.682;9.024;2022-12-10T10:27:43;29.73;;;20.40;;
4011;SDS011;2020;48.682;9.024;2022-12-10T10:30:16;33.50;;;20.73;;
4011;SDS011;2020;48.682;9.024;2022-12-10T10:37:51;34.60;;;20.57;;
4011;SDS011;2020;48.682;9.024;2022-12-10T10:40:22;34.20;;;20.07;;
4011;SDS011;2020;48.682;9.024;2022-12-10T10:42:52;31.43;;;20.67;;
4011;SDS011;2020;48.682;9.024;2022-12-10T10:50:29;30.50;;;19.67;;
4011;SDS011;2020;48.682;9.024;2022-12-10T10:52:55;25.30;;;18.00;;
4011;SDS011;2020;48.682;9.024;2022-12-10T10:55:32;29.00;;;18.40;;
4011;SDS011;2020;48.682;9.024;2022-12-10T10:58:00;31.27;;;18.70;;
4011;SDS011;2020;48.682;9.024;2022-12-10T11:00:26;29.37;;;19.67;;
4011;SDS011;2020;48.682;9.024;2022-12-10T11:02:51;26.70;;;18.03;;
4011;SDS011;2020;48.682;9.024;2022-12-10T11:05:17;27.97;;;18.93;;
4011;SDS011;2020;48.682;9.024;2022-12-10T11:07:48;31.03;;;19.50;;
4011;SDS011;2020;48.682;9.024;2022-12-10T11:10:22;33.80;;;18.93;;
4011;SDS011;2020;48.682;9.024;2022-12-10T11:12:56;32.43;;;20.97;;
4011;SDS011;2020;48.682;9.024;2022-12-10T11:15:30;28.37;;;18.90;;
4011;SDS011;2020;48.682;9.024;2022-12-10T11:17:56;33.73;;;20.83;;
4011;SDS011;2020;48.682;9.024;2022-12-10T11:20:27;27.73;;;18.70;;
4011;SDS011;2020;48.682;9.024;2022-12-10T11:22:59;30.27;;;19.43;;
4011;SDS011;2020;48.682;9.024;2022-12-10T11:25:38;32.17;;;19.40;;
4011;SDS011;2020;48.682;9.024;2022-12-10T11:34:13;27.83;;;19.20;;
4011;SDS011;2020;48.682;9.024;2022-12-10T11:36:43;29.40;;;20.17;;
4011;SDS011;2020;48.682;9.024;2022-12-10T11:42:22;27.30;;;17.87;;
4011;SDS011;2020;48.682;9.024;2022-12-10T11:45:07;24.40;;;17.20;;
4011;SDS011;2020;48.682;9.024;2022-12-10T11:50:14;26.27;;;18.70;;
4011;SDS011;2020;48.682;9.024;2022-12-10T12:03:35;25.67;;;18.30;;
4011;SDS011;2020;48.682;9.024;2022-12-10T12:15:16;26.07;;;17.37;;
4011;SDS011;2020;48.682;9.024;2022-12-10T12:17:53;26.20;;;15.40;;
4011;SDS011;2020;48.682;9.024;2022-12-10T12:25:47;22.33;;;15.10;;
4011;SDS011;2020;48.682;9.024;2022-12-10T12:31:07;26.07;;;18.00;;
4011;SDS011;2020;48.682;9.024;2022-12-10T12:33:40;23.73;;;16.20;;
4011;SDS011;2020;48.682;9.024;2022-12-10T12:36:26;21.70;;;15.30;;
4011;SDS011;2020;48.682;9.024;2022-12-10T12:44:21;20.80;;;13.93;;
4011;SDS011;2020;48.682;9.024;2022-12-10T12:46:50;17.93;;;13.70;;
4011;SDS011;2020;48.682;9.024;2022-12-10T12:54:44;19.37;;;14.40;;
4011;SDS011;2020;48.682;9.024;2022-12-10T12:57:14;15.40;;;13.50;;
4011;SDS011;2020;48.682;9.024;2022-12-10T13:00:00;20.03;;;14.20;;
4011;SDS011;2020;48.682;9.024;2022-12-10T13:05:12;23.77;;;15.20;;
4011;SDS011;2020;48.682;9.024;2022-12-10T13:07:39;19.20;;;14.70;;
4011;SDS011;2020;48.682;9.024;2022-12-10T13:15:20;25.10;;;16.07;;
4011;SDS011;2020;48.682;9.024;2022-12-10T13:23:50;18.87;;;13.67;;
4011;SDS011;2020;48.682;9.024;2022-12-10T13:26:27;20.87;;;15.30;;
4011;SDS011;2020;48.682;9.024;2022-12-10T13:28:55;20.67;;;15.67;;
4011;SDS011;2020;48.682;9.024;2022-12-10T13:31:35;22.03;;;14.53;;
4011;SDS011;2020;48.682;9.024;2022-12-10T13:44:50;22.50;;;15.73;;
4011;SDS011;2020;48.682;9.024;2022-12-10T13:50:15;23.40;;;15.00;;
4011;SDS011;2020;48.682;9.024;2022-12-10T13:55:29;23.63;;;16.10;;
4011;SDS011;2020;48.682;9.024;2022-12-10T14:01:16;23.23;;;15.40;;
4011;SDS011;2020;48.682;9.024;2022-12-10T14:03:30;24.47;;;14.20;;
4011;SDS011;2020;48.682;9.024;2022-12-10T14:06:22;24.87;;;15.97;;
4011;SDS011;2020;48.682;9.024;2022-12-10T14:08:54;28.43;;;17.40;;
4011;SDS011;2020;48.682;9.024;2022-12-10T14:11:43;24.27;;;15.27;;
4011;SDS011;2020;48.682;9.024;2022-12-10T14:14:22;25.23;;;15.67;;
4011;SDS011;2020;48.682;9.024;2022-12-10T14:17:09;22.43;;;15.30;;
4011;SDS011;2020;48.682;9.024;2022-12-10T14:19:39;26.30;;;17.33;;
4011;SDS011;2020;48.682;9.024;2022-12-10T14:22:05;26.27;;;15.90;;
4011;SDS011;2020;48.682;9.024;2022-12-10T14:24:33;25.40;;;16.27;;
4011;SDS011;2020;48.682;9.024;2022-12-10T14:27:05;20.10;;;14.17;;
4011;SDS011;2020;48.682;9.024;2022-12-10T14:29:37;22.50;;;15.20;;
4011;SDS011;2020;48.682;9.024;2022-12-10T14:32:11;24.37;;;15.40;;
4011;SDS011;2020;48.682;9.024;2022-12-10T14:34:39;23.70;;;15.33;;
4011;SDS011;2020;48.682;9.024;2022-12-10T14:37:04;23.43;;;15.20;;
4011;SDS011;2020;48.682;9.024;2022-12-10T14:39:31;17.80;;;13.23;;
4011;SDS011;2020;48.682;9.024;2022-12-10T14:42:02;31.53;;;15.03;;
4011;SDS011;2020;48.682;9.024;2022-12-10T14:44:30;20.30;;;14.13;;
4011;SDS011;2020;48.682;9.024;2022-12-10T14:47:02;24.50;;;15.53;;
4011;SDS011;2020;48.682;9.024;2022-12-10T14:49:49;26.50;;;15.40;;
4011;SDS011;2020;48.682;9.024;2022-12-10T14:52:17;23.87;;;15.87;;
4011;SDS011;2020;48.682;9.024;2022-12-10T14:54:44;24.63;;;16.57;;
4011;SDS011;2020;48.682;9.024;2022-12-10T14:57:15;27.77;;;15.80;;
4011;SDS011;2020;48.682;9.024;2022-12-10T14:59:50;22.97;;;15.43;;
4011;SDS011;2020;48.682;9.024;2022-12-10T15:02:34;21.80;;;14.13;;
4011;SDS011;2020;48.682;9.024;2022-12-10T15:05:03;22.50;;;14.40;;
4011;SDS011;2020;48.682;9.024;2022-12-10T15:07:35;23.07;;;14.00;;
4011;SDS011;2020;48.682;9.024;2022-12-10T15:10:04;24.03;;;14.60;;
4011;SDS011;2020;48.682;9.024;2022-12-10T15:15:10;16.80;;;12.30;;
4011;SDS011;2020;48.682;9.024;2022-12-10T15:17:41;23.83;;;15.10;;
4011;SDS011;2020;48.682;9.024;2022-12-10T15:20:20;20.17;;;13.50;;
4011;SDS011;2020;48.682;9.024;2022-12-10T15:22:49;19.80;;;14.40;;
4011;SDS011;2020;48.682;9.024;2022-12-10T15:25:28;25.10;;;15.37;;
4011;SDS011;2020;48.682;9.024;2022-12-10T15:27:55;25.97;;;16.50;;
4011;SDS011;2020;48.682;9.024;2022-12-10T15:30:36;22.07;;;13.40;;
4011;SDS011;2020;48.682;9.024;2022-12-10T15:33:04;25.83;;;14.87;;
4011;SDS011;2020;48.682;9.024;2022-12-10T15:35:46;18.00;;;13.80;;
4011;SDS011;2020;48.682;9.024;2022-12-10T15:38:12;27.33;;;15.10;;
4011;SDS011;2020;48.682;9.024;2022-12-10T15:40:38;19.50;;;14.10;;
4011;SDS011;2020;48.682;9.024;2022-12-10T15:45:48;23.87;;;14.93;;
4011;SDS011;2020;48.682;9.024;2022-12-10T15:48:14;24.77;;;15.30;;
4011;SDS011;2020;48.682;9.024;2022-12-10T15:50:43;27.90;;;16.83;;
4011;SDS011;2020;48.682;9.024;2022-12-10T15:53:14;27.57;;;17.40;;
4011;SDS011;2020;48.682;9.024;2022-12-10T15:55:46;25.47;;;17.20;;
4011;SDS011;2020;48.682;9.024;2022-12-10T15:58:13;29.93;;;17.57;;
4011;SDS011;2020;48.682;9.024;2022-12-10T16:00:39;28.17;;;19.37;;
4011;SDS011;2020;48.682;9.024;2022-12-10T16:03:09;24.00;;;17.53;;
4011;SDS011;2020;48.682;9.024;2022-12-10T16:05:39;24.33;;;16.80;;
4011;SDS011;2020;48.682;9.024;2022-12-10T16:08:13;25.33;;;17.70;;
4011;SDS011;2020;48.682;9.024;2022-12-10T16:10:42;26.53;;;17.17;;
4011;SDS011;2020;48.682;9.024;2022-12-10T16:13:15;24.47;;;16.87;;
4011;SDS011;2020;48.682;9.024;2022-12-10T16:15:54;26.40;;;18.07;;
4011;SDS011;2020;48.682;9.024;2022-12-10T16:18:22;25.47;;;17.47;;
4011;SDS011;2020;48.682;9.024;2022-12-10T16:20:48;23.70;;;15.60;;
4011;SDS011;2020;48.682;9.024;2022-12-10T16:23:13;24.00;;;16.53;;
4011;SDS011;2020;48.682;9.024;2022-12-10T16:25:39;30.40;;;16.60;;
4011;SDS011;2020;48.682;9.024;2022-12-10T16:28:12;28.20;;;16.00;;
4011;SDS011;2020;48.682;9.024;2022-12-10T16:30:42;21.00;;;14.03;;
4011;SDS011;2020;48.682;9.024;2022-12-10T16:33:09;28.30;;;14.57;;
4011;SDS011;2020;48.682;9.024;2022-12-10T16:35:36;25.30;;;14.70;;
4011;SDS011;2020;48.682;9.024;2022-12-10T16:38:01;19.13;;;13.37;;
4011;SDS011;2020;48.682;9.024;2022-12-10T16:40:27;18.50;;;12.53;;
4011;SDS011;2020;48.682;9.024;2022-12-10T16:42:53;18.67;;;12.23;;
4011;SDS011;2020;48.682;9.024;2022-12-10T16:45:28;17.40;;;11.47;;
4011;SDS011;2020;48.682;9.024;2022-12-10T16:47:56;21.30;;;13.43;;
4011;SDS011;2020;48.682;9.024;2022-12-10T16:50:21;18.43;;;11.70;;
4011;SDS011;2020;48.682;9.024;2022-12-10T16:52:47;18.53;;;13.50;;
4011;SDS011;2020;48.682;9.024;2022-12-10T16:55:17;18.83;;;12.90;;
4011;SDS011;2020;48.682;9.024;2022-12-10T16:57:45;20.27;;;13.73;;
4011;SDS011;2020;48.682;9.024;2022-12-10T17:00:12;19.77;;;13.10;;
4011;SDS011;2020;48.682;9.024;2022-12-10T17:02:42;23.57;;;13.90;;